sensor_id;sensor_type;location;lat;lon;timestamp;pressure;altitude;pressure_sealevel;temperature;humidity
7376;BME280;3728;42.266;24.944;2023-09-07T00:01:45;100027.28;;;22.35;100.00
7376;BME280;3728;42.266;24.944;2023-09-07T00:04:12;100019.78;;;22.44;100.00
7376;BME280;3728;42.266;24.944;2023-09-07T00:06:40;100028.44;;;22.34;100.00
7376;BME280;3728;42.266;24.944;2023-09-07T00:09:10;100024.53;;;22.28;100.00
7376;BME280;3728;42.266;24.944;2023-09-07T00:11:38;100021.44;;;22.23;100.00
7376;BME280;3728;42.266;24.944;2023-09-07T00:14:06;100023.66;;;22.17;100.00
7376;BME280;3728;42.266;24.944;2023-09-07T00:16:34;100029.06;;;22.21;100.00
7376;BME280;3728;42.266;24.944;2023-09-07T00:19:02;100026.72;;;22.19;100.00
7376;BME280;3728;42.266;24.944;2023-09-07T00:21:30;100033.53;;;22.13;100.00
7376;BME280;3728;42.266;24.944;2023-09-07T00:23:57;100030.88;;;22.13;100.00
7376;BME280;3728;42.266;24.944;2023-09-07T00:26:24;100027.78;;;22.11;100.00
7376;BME280;3728;42.266;24.944;2023-09-07T00:28:52;100022.47;;;22.11;100.00
7376;BME280;3728;42.266;24.944;2023-09-07T00:31:19;100020.13;;;22.06;100.00
7376;BME280;3728;42.266;24.944;2023-09-07T00:33:47;100027.75;;;22.08;100.00
7376;BME280;3728;42.266;24.944;2023-09-07T00:36:14;100033.06;;;22.04;100.00
7376;BME280;3728;42.266;24.944;2023-09-07T00:38:41;100022.69;;;21.99;100.00
7376;BME280;3728;42.266;24.944;2023-09-07T00:41:08;100029.94;;;22.02;100.00
7376;BME280;3728;42.266;24.944;2023-09-07T00:43:36;100024.63;;;22.02;100.00
7376;BME280;3728;42.266;24.944;2023-09-07T00:46:04;100020.75;;;21.96;100.00
7376;BME280;3728;42.266;24.944;2023-09-07T00:48:32;100026.47;;;21.98;100.00
7376;BME280;3728;42.266;24.944;2023-09-07T00:51:00;100035.19;;;21.95;100.00
7376;BME280;3728;42.266;24.944;2023-09-07T00:53:27;100032.91;;;21.94;100.00
7376;BME280;3728;42.266;24.944;2023-09-07T00:55:55;100034.38;;;21.88;100.00
7376;BME280;3728;42.266;24.944;2023-09-07T00:58:25;100032.03;;;21.86;100.00
7376;BME280;3728;42.266;24.944;2023-09-07T01:00:53;100033.09;;;21.81;100.00
7376;BME280;3728;42.266;24.944;2023-09-07T01:03:21;100028.81;;;21.73;100.00
7376;BME280;3728;42.266;24.944;2023-09-07T01:05:57;100028.09;;;21.76;100.00
7376;BME280;3728;42.266;24.944;2023-09-07T01:08:32;100023.03;;;21.68;100.00
7376;BME280;3728;42.266;24.944;2023-09-07T01:11:19;100016.94;;;21.67;100.00
7376;BME280;3728;42.266;24.944;2023-09-07T01:13:50;100022.63;;;21.66;100.00
7376;BME280;3728;42.266;24.944;2023-09-07T01:16:22;100024.16;;;21.67;100.00
7376;BME280;3728;42.266;24.944;2023-09-07T01:18:51;100020.28;;;21.61;100.00
7376;BME280;3728;42.266;24.944;2023-09-07T01:21:19;100012.25;;;21.57;100.00
7376;BME280;3728;42.266;24.944;2023-09-07T01:23:47;100007.22;;;21.52;100.00
7376;BME280;3728;42.266;24.944;2023-09-07T01:26:15;100013.63;;;21.48;100.00
7376;BME280;3728;42.266;24.944;2023-09-07T01:28:42;100013.19;;;21.46;100.00
7376;BME280;3728;42.266;24.944;2023-09-07T01:31:10;100007.03;;;21.38;100.00
7376;BME280;3728;42.266;24.944;2023-09-07T01:33:38;100013.78;;;21.32;100.00
7376;BME280;3728;42.266;24.944;2023-09-07T01:36:06;100005.38;;;21.30;100.00
7376;BME280;3728;42.266;24.944;2023-09-07T01:38:33;100008.09;;;21.34;100.00
7376;BME280;3728;42.266;24.944;2023-09-07T01:41:00;100009.22;;;21.33;100.00
7376;BME280;3728;42.266;24.944;2023-09-07T01:43:28;100000.03;;;21.30;100.00
7376;BME280;3728;42.266;24.944;2023-09-07T01:45:55;100012.56;;;21.26;100.00
7376;BME280;3728;42.266;24.944;2023-09-07T01:48:23;100009.13;;;21.26;100.00
7376;BME280;3728;42.266;24.944;2023-09-07T01:50:53;100009.00;;;21.19;100.00
7376;BME280;3728;42.266;24.944;2023-09-07T01:53:21;100011.72;;;21.22;100.00
7376;BME280;3728;42.266;24.944;2023-09-07T01:55:50;100013.53;;;21.15;100.00
7376;BME280;3728;42.266;24.944;2023-09-07T01:58:20;100014.34;;;21.19;100.00
7376;BME280;3728;42.266;24.944;2023-09-07T02:00:47;100013.13;;;21.13;100.00
7376;BME280;3728;42.266;24.944;2023-09-07T02:03:14;100023.66;;;21.05;100.00
7376;BME280;3728;42.266;24.944;2023-09-07T02:05:45;100015.97;;;21.04;100.00
7376;BME280;3728;42.266;24.944;2023-09-07T02:08:12;100011.72;;;20.99;100.00
7376;BME280;3728;42.266;24.944;2023-09-07T02:10:40;100013.28;;;21.00;100.00
7376;BME280;3728;42.266;24.944;2023-09-07T02:13:07;100018.53;;;20.97;100.00
7376;BME280;3728;42.266;24.944;2023-09-07T02:15:39;100026.88;;;20.95;100.00
7376;BME280;3728;42.266;24.944;2023-09-07T02:18:06;100027.00;;;21.02;100.00
7376;BME280;3728;42.266;24.944;2023-09-07T02:20:34;100023.44;;;20.95;100.00
7376;BME280;3728;42.266;24.944;2023-09-07T02:23:02;100026.63;;;21.04;100.00
7376;BME280;3728;42.266;24.944;2023-09-07T02:25:29;100029.88;;;20.94;100.00
7376;BME280;3728;42.266;24.944;2023-09-07T02:27:57;100029.16;;;20.93;100.00
7376;BME280;3728;42.266;24.944;2023-09-07T02:30:25;100026.78;;;20.88;100.00
7376;BME280;3728;42.266;24.944;2023-09-07T02:32:52;100029.72;;;20.83;100.00
7376;BME280;3728;42.266;24.944;2023-09-07T02:35:20;100029.06;;;20.90;100.00
7376;BME280;3728;42.266;24.944;2023-09-07T02:37:47;100020.69;;;20.88;100.00
7376;BME280;3728;42.266;24.944;2023-09-07T02:40:14;100012.28;;;20.86;100.00
7376;BME280;3728;42.266;24.944;2023-09-07T02:42:42;100022.50;;;20.84;100.00
7376;BME280;3728;42.266;24.944;2023-09-07T02:45:14;100019.50;;;20.85;100.00
7376;BME280;3728;42.266;24.944;2023-09-07T02:47:42;100012.66;;;20.84;100.00
7376;BME280;3728;42.266;24.944;2023-09-07T02:50:09;100021.50;;;20.92;100.00
7376;BME280;3728;42.266;24.944;2023-09-07T02:52:36;100009.31;;;20.91;100.00
7376;BME280;3728;42.266;24.944;2023-09-07T02:55:05;100014.94;;;20.86;100.00
7376;BME280;3728;42.266;24.944;2023-09-07T02:57:34;100020.94;;;20.79;100.00
7376;BME280;3728;42.266;24.944;2023-09-07T03:00:02;100025.09;;;20.80;100.00
7376;BME280;3728;42.266;24.944;2023-09-07T03:02:36;100025.06;;;20.77;100.00
7376;BME280;3728;42.266;24.944;2023-09-07T03:05:04;100018.16;;;20.72;100.00
7376;BME280;3728;42.266;24.944;2023-09-07T03:07:33;100018.84;;;20.69;100.00
7376;BME280;3728;42.266;24.944;2023-09-07T03:10:00;100018.78;;;20.66;100.00
7376;BME280;3728;42.266;24.944;2023-09-07T03:12:28;100024.03;;;20.62;100.00
7376;BME280;3728;42.266;24.944;2023-09-07T03:14:55;100021.66;;;20.57;100.00
7376;BME280;3728;42.266;24.944;2023-09-07T03:17:23;100030.84;;;20.60;100.00
7376;BME280;3728;42.266;24.944;2023-09-07T03:19:50;100030.75;;;20.56;100.00
7376;BME280;3728;42.266;24.944;2023-09-07T03:22:19;100031.50;;;20.53;100.00
7376;BME280;3728;42.266;24.944;2023-09-07T03:24:47;100030.03;;;20.56;100.00
7376;BME280;3728;42.266;24.944;2023-09-07T03:27:15;100032.31;;;20.57;100.00
7376;BME280;3728;42.266;24.944;2023-09-07T03:29:44;100032.41;;;20.61;100.00
7376;BME280;3728;42.266;24.944;2023-09-07T03:32:12;100019.50;;;20.63;100.00
7376;BME280;3728;42.266;24.944;2023-09-07T03:34:39;100030.16;;;20.63;100.00
7376;BME280;3728;42.266;24.944;2023-09-07T03:37:07;100030.16;;;20.63;100.00
7376;BME280;3728;42.266;24.944;2023-09-07T03:39:38;100029.66;;;20.57;100.00
7376;BME280;3728;42.266;24.944;2023-09-07T03:42:06;100028.84;;;20.53;100.00
7376;BME280;3728;42.266;24.944;2023-09-07T03:44:33;100032.03;;;20.62;100.00
7376;BME280;3728;42.266;24.944;2023-09-07T03:47:00;100032.84;;;20.66;100.00
7376;BME280;3728;42.266;24.944;2023-09-07T03:49:28;100041.25;;;20.68;100.00
7376;BME280;3728;42.266;24.944;2023-09-07T03:51:55;100038.47;;;20.61;100.00
7376;BME280;3728;42.266;24.944;2023-09-07T03:54:23;100038.47;;;20.61;100.00
7376;BME280;3728;42.266;24.944;2023-09-07T03:56:50;100040.72;;;20.59;100.00
7376;BME280;3728;42.266;24.944;2023-09-07T03:59:18;100044.22;;;20.63;100.00
7376;BME280;3728;42.266;24.944;2023-09-07T04:01:45;100043.88;;;20.65;100.00
7376;BME280;3728;42.266;24.944;2023-09-07T04:04:12;100042.69;;;20.62;100.00
7376;BME280;3728;42.266;24.944;2023-09-07T04:06:40;100042.25;;;20.60;100.00
7376;BME280;3728;42.266;24.944;2023-09-07T04:09:07;100042.19;;;20.57;100.00
7376;BME280;3728;42.266;24.944;2023-09-07T04:11:34;100036.09;;;20.56;100.00
7376;BME280;3728;42.266;24.944;2023-09-07T04:14:02;100037.50;;;20.50;100.00
7376;BME280;3728;42.266;24.944;2023-09-07T04:16:29;100040.94;;;20.51;100.00
7376;BME280;3728;42.266;24.944;2023-09-07T04:18:56;100046.97;;;20.48;100.00
7376;BME280;3728;42.266;24.944;2023-09-07T04:21:24;100052.28;;;20.48;100.00
7376;BME280;3728;42.266;24.944;2023-09-07T04:23:51;100049.25;;;20.49;100.00
7376;BME280;3728;42.266;24.944;2023-09-07T04:26:18;100054.72;;;20.56;100.00
7376;BME280;3728;42.266;24.944;2023-09-07T04:28:46;100054.38;;;20.58;100.00
7376;BME280;3728;42.266;24.944;2023-09-07T04:31:13;100052.81;;;20.57;100.00
7376;BME280;3728;42.266;24.944;2023-09-07T04:33:40;100055.84;;;20.55;100.00
7376;BME280;3728;42.266;24.944;2023-09-07T04:36:12;100048.38;;;20.61;100.00
7376;BME280;3728;42.266;24.944;2023-09-07T04:38:44;100057.00;;;20.77;100.00
7376;BME280;3728;42.266;24.944;2023-09-07T04:41:13;100057.78;;;20.77;100.00
7376;BME280;3728;42.266;24.944;2023-09-07T04:43:43;100060.25;;;20.89;100.00
7376;BME280;3728;42.266;24.944;2023-09-07T04:46:12;100062.75;;;21.01;100.00
7376;BME280;3728;42.266;24.944;2023-09-07T04:48:40;100068.22;;;21.08;100.00
7376;BME280;3728;42.266;24.944;2023-09-07T04:51:09;100062.59;;;21.13;100.00
7376;BME280;3728;42.266;24.944;2023-09-07T04:53:40;100069.16;;;21.20;100.00
7376;BME280;3728;42.266;24.944;2023-09-07T04:56:08;100065.78;;;21.23;100.00
7376;BME280;3728;42.266;24.944;2023-09-07T04:58:36;100067.13;;;21.36;100.00
7376;BME280;3728;42.266;24.944;2023-09-07T05:01:05;100069.59;;;21.48;100.00
7376;BME280;3728;42.266;24.944;2023-09-07T05:03:33;100070.50;;;21.59;100.00
7376;BME280;3728;42.266;24.944;2023-09-07T05:06:00;100070.63;;;21.66;100.00
7376;BME280;3728;42.266;24.944;2023-09-07T05:08:30;100067.34;;;21.76;100.00
7376;BME280;3728;42.266;24.944;2023-09-07T05:11:00;100071.59;;;21.80;100.00
7376;BME280;3728;42.266;24.944;2023-09-07T05:13:30;100076.28;;;21.87;100.00
7376;BME280;3728;42.266;24.944;2023-09-07T05:16:00;100082.59;;;22.05;100.00
7376;BME280;3728;42.266;24.944;2023-09-07T05:18:34;100080.41;;;22.14;100.00
7376;BME280;3728;42.266;24.944;2023-09-07T05:21:11;100086.59;;;22.22;100.00
7376;BME280;3728;42.266;24.944;2023-09-07T05:23:41;100076.78;;;22.29;100.00
7376;BME280;3728;42.266;24.944;2023-09-07T05:26:09;100073.91;;;22.45;100.00
7376;BME280;3728;42.266;24.944;2023-09-07T05:28:39;100080.16;;;22.56;100.00
7376;BME280;3728;42.266;24.944;2023-09-07T05:31:07;100077.66;;;22.70;100.00
7376;BME280;3728;42.266;24.944;2023-09-07T05:33:35;100083.44;;;22.79;100.00
7376;BME280;3728;42.266;24.944;2023-09-07T05:36:03;100078.97;;;22.90;100.00
7376;BME280;3728;42.266;24.944;2023-09-07T05:38:30;100076.78;;;23.03;100.00
7376;BME280;3728;42.266;24.944;2023-09-07T05:41:00;100087.94;;;23.12;100.00
7376;BME280;3728;42.266;24.944;2023-09-07T05:43:27;100084.59;;;23.22;100.00
7376;BME280;3728;42.266;24.944;2023-09-07T05:45:55;100084.66;;;23.29;100.00
7376;BME280;3728;42.266;24.944;2023-09-07T05:48:23;100075.56;;;23.37;100.00
7376;BME280;3728;42.266;24.944;2023-09-07T05:50:50;100082.88;;;23.47;100.00
7376;BME280;3728;42.266;24.944;2023-09-07T05:53:20;100073.41;;;23.60;100.00
7376;BME280;3728;42.266;24.944;2023-09-07T05:55:48;100068.91;;;23.71;100.00
7376;BME280;3728;42.266;24.944;2023-09-07T05:58:16;100072.81;;;23.92;100.00
7376;BME280;3728;42.266;24.944;2023-09-07T06:00:44;100078.19;;;23.99;100.00
7376;BME280;3728;42.266;24.944;2023-09-07T06:03:11;100077.47;;;24.02;95.60
7376;BME280;3728;42.266;24.944;2023-09-07T06:05:39;100074.78;;;24.02;95.81
7376;BME280;3728;42.266;24.944;2023-09-07T06:08:08;100079.50;;;24.26;94.56
7376;BME280;3728;42.266;24.944;2023-09-07T06:10:36;100084.44;;;24.24;88.39
7376;BME280;3728;42.266;24.944;2023-09-07T06:13:07;100077.94;;;24.18;89.50
7376;BME280;3728;42.266;24.944;2023-09-07T06:15:34;100083.28;;;24.18;86.45
7376;BME280;3728;42.266;24.944;2023-09-07T06:18:03;100082.94;;;24.26;85.31
7376;BME280;3728;42.266;24.944;2023-09-07T06:20:31;100086.03;;;24.39;87.63
7376;BME280;3728;42.266;24.944;2023-09-07T06:23:03;100091.06;;;24.62;87.31
7376;BME280;3728;42.266;24.944;2023-09-07T06:25:30;100085.00;;;24.79;86.10
7376;BME280;3728;42.266;24.944;2023-09-07T06:28:00;100087.72;;;24.96;84.13
7376;BME280;3728;42.266;24.944;2023-09-07T06:30:27;100090.78;;;25.27;81.65
7376;BME280;3728;42.266;24.944;2023-09-07T06:32:55;100088.47;;;25.43;81.67
7376;BME280;3728;42.266;24.944;2023-09-07T06:35:25;100094.19;;;25.59;79.87
7376;BME280;3728;42.266;24.944;2023-09-07T06:37:53;100099.94;;;25.64;78.40
7376;BME280;3728;42.266;24.944;2023-09-07T06:40:23;100092.28;;;25.66;78.50
7376;BME280;3728;42.266;24.944;2023-09-07T06:42:55;100094.19;;;25.73;78.10
7376;BME280;3728;42.266;24.944;2023-09-07T06:45:25;100095.31;;;25.79;76.97
7376;BME280;3728;42.266;24.944;2023-09-07T06:47:52;100093.78;;;25.78;74.46
7376;BME280;3728;42.266;24.944;2023-09-07T06:50:23;100100.31;;;25.70;72.58
7376;BME280;3728;42.266;24.944;2023-09-07T06:52:50;100095.38;;;25.54;73.91
7376;BME280;3728;42.266;24.944;2023-09-07T06:55:20;100089.63;;;25.52;73.42
7376;BME280;3728;42.266;24.944;2023-09-07T06:57:48;100096.91;;;25.34;73.50
7376;BME280;3728;42.266;24.944;2023-09-07T07:00:16;100088.09;;;25.23;73.50
7376;BME280;3728;42.266;24.944;2023-09-07T07:02:43;100096.13;;;25.16;76.13
7376;BME280;3728;42.266;24.944;2023-09-07T07:05:11;100091.53;;;25.34;74.72
7376;BME280;3728;42.266;24.944;2023-09-07T07:07:40;100096.91;;;25.13;74.83
7376;BME280;3728;42.266;24.944;2023-09-07T07:10:07;100089.63;;;25.21;76.93
7376;BME280;3728;42.266;24.944;2023-09-07T07:12:39;100094.59;;;25.54;72.38
7376;BME280;3728;42.266;24.944;2023-09-07T07:15:06;100093.78;;;25.78;70.50
7376;BME280;3728;42.266;24.944;2023-09-07T07:17:35;100093.28;;;26.15;69.82
7376;BME280;3728;42.266;24.944;2023-09-07T07:20:03;100086.72;;;26.26;66.99
7376;BME280;3728;42.266;24.944;2023-09-07T07:22:31;100091.28;;;26.40;67.22
7376;BME280;3728;42.266;24.944;2023-09-07T07:25:02;100089.28;;;26.51;62.70
7376;BME280;3728;42.266;24.944;2023-09-07T07:27:32;100093.00;;;26.75;60.10
7376;BME280;3728;42.266;24.944;2023-09-07T07:30:00;100091.78;;;26.83;63.30
7376;BME280;3728;42.266;24.944;2023-09-07T07:32:28;100092.81;;;27.03;55.77
7376;BME280;3728;42.266;24.944;2023-09-07T07:34:56;100092.50;;;26.94;56.94
7376;BME280;3728;42.266;24.944;2023-09-07T07:37:23;100089.38;;;26.99;59.88
7376;BME280;3728;42.266;24.944;2023-09-07T07:39:51;100093.56;;;27.03;57.44
7376;BME280;3728;42.266;24.944;2023-09-07T07:42:18;100100.41;;;27.15;54.53
7376;BME280;3728;42.266;24.944;2023-09-07T07:44:46;100092.31;;;27.15;54.80
7376;BME280;3728;42.266;24.944;2023-09-07T07:47:13;100105.22;;;27.75;49.83
7376;BME280;3728;42.266;24.944;2023-09-07T07:49:41;100108.09;;;28.28;48.50
7376;BME280;3728;42.266;24.944;2023-09-07T07:52:08;100107.25;;;28.05;50.77
7376;BME280;3728;42.266;24.944;2023-09-07T07:54:35;100107.34;;;28.28;47.53
7376;BME280;3728;42.266;24.944;2023-09-07T07:57:04;100103.34;;;28.39;46.24
7376;BME280;3728;42.266;24.944;2023-09-07T07:59:33;100094.09;;;28.40;47.37
7376;BME280;3728;42.266;24.944;2023-09-07T08:02:01;100090.13;;;28.48;46.07
7376;BME280;3728;42.266;24.944;2023-09-07T08:04:29;100095.41;;;28.59;44.66
7376;BME280;3728;42.266;24.944;2023-09-07T08:07:00;100106.72;;;29.24;42.68
7376;BME280;3728;42.266;24.944;2023-09-07T08:09:32;100107.59;;;29.17;42.04
7376;BME280;3728;42.266;24.944;2023-09-07T08:11:59;100111.56;;;29.09;42.53
7376;BME280;3728;42.266;24.944;2023-09-07T08:14:30;100105.00;;;29.10;42.75
7376;BME280;3728;42.266;24.944;2023-09-07T08:16:58;100102.63;;;29.39;40.11
7376;BME280;3728;42.266;24.944;2023-09-07T08:19:26;100102.81;;;29.28;40.28
7376;BME280;3728;42.266;24.944;2023-09-07T08:21:55;100090.66;;;28.67;42.10
7376;BME280;3728;42.266;24.944;2023-09-07T08:24:24;100096.84;;;28.90;42.03
7376;BME280;3728;42.266;24.944;2023-09-07T08:26:52;100090.00;;;28.59;41.76
7376;BME280;3728;42.266;24.944;2023-09-07T08:29:23;100090.78;;;28.56;42.52
7376;BME280;3728;42.266;24.944;2023-09-07T08:31:53;100086.13;;;28.60;41.91
7376;BME280;3728;42.266;24.944;2023-09-07T08:34:24;100098.44;;;28.61;41.14
7376;BME280;3728;42.266;24.944;2023-09-07T08:36:53;100087.00;;;28.50;42.04
7376;BME280;3728;42.266;24.944;2023-09-07T08:39:21;100095.34;;;28.63;41.76
7376;BME280;3728;42.266;24.944;2023-09-07T08:41:52;100089.59;;;28.87;40.24
7376;BME280;3728;42.266;24.944;2023-09-07T08:44:29;100090.28;;;28.91;45.10
7376;BME280;3728;42.266;24.944;2023-09-07T08:46:59;100087.72;;;29.07;46.07
7376;BME280;3728;42.266;24.944;2023-09-07T08:49:32;100087.91;;;29.20;43.62
7376;BME280;3728;42.266;24.944;2023-09-07T08:52:02;100078.03;;;28.87;42.35
7376;BME280;3728;42.266;24.944;2023-09-07T08:54:35;100084.28;;;28.54;42.62
7376;BME280;3728;42.266;24.944;2023-09-07T08:57:04;100068.72;;;28.65;44.11
7376;BME280;3728;42.266;24.944;2023-09-07T08:59:31;100072.66;;;28.60;44.96
7376;BME280;3728;42.266;24.944;2023-09-07T09:01:59;100066.53;;;28.56;44.90
7376;BME280;3728;42.266;24.944;2023-09-07T09:04:27;100062.63;;;28.87;44.44
7376;BME280;3728;42.266;24.944;2023-09-07T09:06:55;100071.81;;;28.90;44.85
7376;BME280;3728;42.266;24.944;2023-09-07T09:09:24;100069.63;;;28.81;47.36
7376;BME280;3728;42.266;24.944;2023-09-07T09:11:51;100061.09;;;29.33;44.28
7376;BME280;3728;42.266;24.944;2023-09-07T09:14:19;100052.75;;;29.00;46.96
7376;BME280;3728;42.266;24.944;2023-09-07T09:16:52;100046.59;;;29.00;46.63
7376;BME280;3728;42.266;24.944;2023-09-07T09:19:33;100043.56;;;29.21;45.99
7376;BME280;3728;42.266;24.944;2023-09-07T09:22:01;100045.59;;;29.37;44.83
7376;BME280;3728;42.266;24.944;2023-09-07T09:24:33;100039.63;;;29.26;44.65
7376;BME280;3728;42.266;24.944;2023-09-07T09:27:04;100043.06;;;29.69;43.86
7376;BME280;3728;42.266;24.944;2023-09-07T09:29:35;100033.22;;;29.59;43.88
7376;BME280;3728;42.266;24.944;2023-09-07T09:32:07;100030.16;;;29.57;44.22
7376;BME280;3728;42.266;24.944;2023-09-07T09:34:37;100029.88;;;29.51;42.84
7376;BME280;3728;42.266;24.944;2023-09-07T09:37:13;100027.53;;;29.34;45.69
7376;BME280;3728;42.266;24.944;2023-09-07T09:39:49;100027.25;;;29.28;45.63
7376;BME280;3728;42.266;24.944;2023-09-07T09:42:17;100024.84;;;29.34;47.65
7376;BME280;3728;42.266;24.944;2023-09-07T09:44:49;100020.19;;;29.54;44.85
7376;BME280;3728;42.266;24.944;2023-09-07T09:47:17;100027.53;;;29.73;46.02
7376;BME280;3728;42.266;24.944;2023-09-07T09:49:47;100014.41;;;29.55;47.92
7376;BME280;3728;42.266;24.944;2023-09-07T09:52:16;100015.63;;;29.31;47.71
7376;BME280;3728;42.266;24.944;2023-09-07T09:54:44;100015.00;;;29.24;45.66
7376;BME280;3728;42.266;24.944;2023-09-07T09:57:12;100010.44;;;29.79;44.88
7376;BME280;3728;42.266;24.944;2023-09-07T10:00:00;100012.06;;;29.77;44.46
7376;BME280;3728;42.266;24.944;2023-09-07T10:02:39;100014.19;;;29.66;47.51
7376;BME280;3728;42.266;24.944;2023-09-07T10:05:08;100009.78;;;29.56;45.75
7376;BME280;3728;42.266;24.944;2023-09-07T10:07:48;100011.50;;;29.46;46.12
7376;BME280;3728;42.266;24.944;2023-09-07T10:10:19;100011.47;;;29.66;47.70
7376;BME280;3728;42.266;24.944;2023-09-07T10:13:07;100001.66;;;29.95;45.31
7376;BME280;3728;42.266;24.944;2023-09-07T10:15:35;100010.72;;;29.85;45.17
7376;BME280;3728;42.266;24.944;2023-09-07T10:18:12;100002.19;;;29.87;44.46
7376;BME280;3728;42.266;24.944;2023-09-07T10:20:55;99999.16;;;30.20;43.16
7376;BME280;3728;42.266;24.944;2023-09-07T10:23:39;99983.84;;;29.98;44.15
7376;BME280;3728;42.266;24.944;2023-09-07T10:26:17;99986.00;;;29.87;44.73
7376;BME280;3728;42.266;24.944;2023-09-07T10:29:00;99990.38;;;30.32;44.60
7376;BME280;3728;42.266;24.944;2023-09-07T10:31:30;99983.97;;;30.75;42.42
7376;BME280;3728;42.266;24.944;2023-09-07T10:34:19;99973.44;;;30.64;42.63
7376;BME280;3728;42.266;24.944;2023-09-07T10:36:55;99980.50;;;30.90;40.10
7376;BME280;3728;42.266;24.944;2023-09-07T10:39:23;99968.25;;;31.02;37.80
7376;BME280;3728;42.266;24.944;2023-09-07T10:41:50;99976.56;;;30.95;35.34
7376;BME280;3728;42.266;24.944;2023-09-07T10:44:25;99970.75;;;31.09;34.04
7376;BME280;3728;42.266;24.944;2023-09-07T10:46:56;99974.63;;;31.37;34.44
7376;BME280;3728;42.266;24.944;2023-09-07T10:49:24;99978.72;;;31.57;33.17
7376;BME280;3728;42.266;24.944;2023-09-07T10:51:52;99965.72;;;31.77;33.56
7376;BME280;3728;42.266;24.944;2023-09-07T10:54:23;99977.69;;;32.18;32.53
7376;BME280;3728;42.266;24.944;2023-09-07T10:56:53;99977.59;;;32.21;33.78
7376;BME280;3728;42.266;24.944;2023-09-07T10:59:20;99965.44;;;32.38;32.83
7376;BME280;3728;42.266;24.944;2023-09-07T11:01:48;99958.50;;;32.50;32.59
7376;BME280;3728;42.266;24.944;2023-09-07T11:04:18;99969.03;;;32.82;30.83
7376;BME280;3728;42.266;24.944;2023-09-07T11:06:47;99963.56;;;32.48;32.19
7376;BME280;3728;42.266;24.944;2023-09-07T11:09:19;99966.00;;;32.21;31.88
7376;BME280;3728;42.266;24.944;2023-09-07T11:11:47;99949.16;;;31.88;35.15
7376;BME280;3728;42.266;24.944;2023-09-07T11:14:15;99955.25;;;31.92;33.67
7376;BME280;3728;42.266;24.944;2023-09-07T11:16:42;99942.88;;;31.66;34.46
7376;BME280;3728;42.266;24.944;2023-09-07T11:19:10;99925.34;;;32.21;34.26
7376;BME280;3728;42.266;24.944;2023-09-07T11:21:38;99937.47;;;32.16;34.24
7376;BME280;3728;42.266;24.944;2023-09-07T11:24:08;99946.09;;;32.49;34.30
7376;BME280;3728;42.266;24.944;2023-09-07T11:26:46;99952.16;;;33.22;30.76
7376;BME280;3728;42.266;24.944;2023-09-07T11:29:16;99944.56;;;33.38;30.61
7376;BME280;3728;42.266;24.944;2023-09-07T11:31:48;99936.91;;;33.15;30.69
7376;BME280;3728;42.266;24.944;2023-09-07T11:34:16;99936.28;;;32.98;30.59
7376;BME280;3728;42.266;24.944;2023-09-07T11:36:44;99938.06;;;32.92;30.87
7376;BME280;3728;42.266;24.944;2023-09-07T11:39:12;99928.28;;;33.17;30.47
7376;BME280;3728;42.266;24.944;2023-09-07T11:41:43;99910.53;;;32.81;30.40
7376;BME280;3728;42.266;24.944;2023-09-07T11:44:12;99911.63;;;32.37;33.88
7376;BME280;3728;42.266;24.944;2023-09-07T11:46:39;99915.44;;;32.52;37.15
7376;BME280;3728;42.266;24.944;2023-09-07T11:49:09;99902.78;;;31.99;37.81
7376;BME280;3728;42.266;24.944;2023-09-07T11:51:37;99915.47;;;31.89;38.28
7376;BME280;3728;42.266;24.944;2023-09-07T11:54:08;99900.66;;;31.40;37.86
7376;BME280;3728;42.266;24.944;2023-09-07T11:56:37;99899.00;;;31.17;40.07
7376;BME280;3728;42.266;24.944;2023-09-07T11:59:11;99895.25;;;31.40;40.75
7376;BME280;3728;42.266;24.944;2023-09-07T12:01:39;99896.28;;;31.46;38.43
7376;BME280;3728;42.266;24.944;2023-09-07T12:04:07;99880.78;;;31.59;37.07
7376;BME280;3728;42.266;24.944;2023-09-07T12:06:38;99883.63;;;31.55;37.37
7376;BME280;3728;42.266;24.944;2023-09-07T12:09:06;99884.16;;;31.88;36.29
7376;BME280;3728;42.266;24.944;2023-09-07T12:11:35;99878.84;;;31.97;34.64
7376;BME280;3728;42.266;24.944;2023-09-07T12:14:04;99876.03;;;32.01;34.71
7376;BME280;3728;42.266;24.944;2023-09-07T12:16:32;99881.09;;;32.11;34.76
7376;BME280;3728;42.266;24.944;2023-09-07T12:19:00;99877.22;;;32.81;32.91
7376;BME280;3728;42.266;24.944;2023-09-07T12:21:28;99874.19;;;33.00;31.58
7376;BME280;3728;42.266;24.944;2023-09-07T12:23:56;99868.13;;;32.96;33.15
7376;BME280;3728;42.266;24.944;2023-09-07T12:26:24;99865.81;;;32.64;35.06
7376;BME280;3728;42.266;24.944;2023-09-07T12:28:51;99869.50;;;32.79;31.56
7376;BME280;3728;42.266;24.944;2023-09-07T12:31:19;99869.34;;;32.27;35.94
7376;BME280;3728;42.266;24.944;2023-09-07T12:33:46;99867.75;;;31.92;36.54
7376;BME280;3728;42.266;24.944;2023-09-07T12:36:14;99865.28;;;31.85;34.19
7376;BME280;3728;42.266;24.944;2023-09-07T12:38:41;99870.91;;;32.15;31.87
7376;BME280;3728;42.266;24.944;2023-09-07T12:41:09;99865.41;;;31.94;32.47
7376;BME280;3728;42.266;24.944;2023-09-07T12:43:36;99857.50;;;31.74;33.21
7376;BME280;3728;42.266;24.944;2023-09-07T12:46:04;99856.94;;;31.41;35.51
7376;BME280;3728;42.266;24.944;2023-09-07T12:48:32;99862.44;;;31.38;34.15
7376;BME280;3728;42.266;24.944;2023-09-07T12:50:59;99863.00;;;31.45;34.60
7376;BME280;3728;42.266;24.944;2023-09-07T12:53:27;99867.69;;;31.57;33.22
7376;BME280;3728;42.266;24.944;2023-09-07T12:55:55;99864.72;;;31.90;32.07
7376;BME280;3728;42.266;24.944;2023-09-07T12:58:23;99865.28;;;31.47;33.65
7376;BME280;3728;42.266;24.944;2023-09-07T13:00:50;99857.97;;;31.19;35.89
7376;BME280;3728;42.266;24.944;2023-09-07T13:03:19;99849.88;;;31.31;36.47
7376;BME280;3728;42.266;24.944;2023-09-07T13:05:48;99867.88;;;30.68;38.80
7376;BME280;3728;42.266;24.944;2023-09-07T13:08:16;99868.13;;;30.12;41.48